Time;durP1;ratioP1;P1;durP2;ratioP2;P2;SDS_P1;SDS_P2;PMS_P1;PMS_P2;Temp;Humidity;BMP_temperature;BMP_pressure;BME280_temperature;BME280_humidity;BME280_pressure;Samples;Min_cycle;Max_cycle;Signal;HPM_P1;HPM_P2
2023/06/01 00:03:58;;;;;;;8.17;5.50;;;;;;;17.09;58.42;100813.11;5052736;57;1140921;-65
2023/06/01 00:09:04;;;;;;;16.07;5.07;;;;;;;16.77;58.43;100816.31;5075977;56;1138849;-67
2023/06/01 00:14:10;;;;;;;15.90;6.70;;;;;;;16.62;59.24;100817.79;5052705;57;1140910;-68
2023/06/01 00:19:15;;;;;;;7.80;4.03;;;;;;;16.61;59.84;100807.25;5053035;57;1140794;-66
2023/06/01 00:24:22;;;;;;;8.83;3.87;;;;;;;16.63;59.84;100808.82;5083057;56;1139033;-65
2023/06/01 00:29:28;;;;;;;11.25;4.42;;;;;;;16.45;59.44;100807.42;5136988;56;1138852;-66
2023/06/01 00:34:33;;;;;;;7.90;3.63;;;;;;;16.39;59.99;100804.49;5137570;56;1140784;-67
2023/06/01 00:39:39;;;;;;;6.83;3.70;;;;;;;16.28;60.03;100806.88;5138069;56;1138795;-68
2023/06/01 00:44:44;;;;;;;10.97;3.57;;;;;;;16.31;60.83;100801.25;5158121;56;1138936;-66
2023/06/01 00:49:50;;;;;;;8.03;3.70;;;;;;;16.15;60.43;100803.72;5137604;56;1141010;-67
2023/06/01 00:54:56;;;;;;;8.13;3.17;;;;;;;15.95;60.60;100804.79;5054606;56;1138844;-70
2023/06/01 01:00:08;;;;;;;10.77;4.00;;;;;;;15.75;61.00;100804.84;5071197;57;1138800;-69
2023/06/01 01:05:12;;;;;;;5.73;3.90;;;;;;;15.60;61.53;100800.96;4890140;59;1141047;-66
2023/06/01 01:10:34;;;;;;;7.13;4.07;;;;;;;15.57;62.50;100793.77;5137843;56;1139088;-67
2023/06/01 01:16:01;;;;;;;6.17;3.63;;;;;;;15.70;62.83;100792.47;5137752;56;1138782;-70
2023/06/01 01:21:21;;;;;;;4.73;3.70;;;;;;;15.70;62.38;100785.80;5155962;56;1138830;-68
2023/06/01 01:26:45;;;;;;;7.84;3.66;;;;;;;15.67;62.14;100782.58;5152261;56;1138957;-68
2023/06/01 01:31:52;;;;;;;11.33;3.20;;;;;;;15.48;62.16;100778.09;5130561;56;1138915;-67
2023/06/01 01:36:59;;;;;;;4.77;3.57;;;;;;;15.25;62.59;100777.59;5136319;56;1140882;-70
2023/06/01 01:42:05;;;;;;;6.43;3.40;;;;;;;15.17;63.29;100777.95;5157564;56;1139232;-67
2023/06/01 01:47:27;;;;;;;6.53;3.63;;;;;;;15.19;63.50;100771.98;5134715;56;1139032;-66
2023/06/01 01:52:40;;;;;;;9.45;3.52;;;;;;;15.21;63.35;100774.02;5078031;56;1138808;-67
2023/06/01 01:57:47;;;;;;;10.73;3.80;;;;;;;15.13;63.41;100772.89;5100974;56;1138787;-67
2023/06/01 02:02:52;;;;;;;5.27;2.60;;;;;;;15.03;63.63;100770.74;5121810;56;1141044;-70
2023/06/01 02:07:58;;;;;;;8.87;3.87;;;;;;;14.90;63.90;100758.20;5041416;57;1138885;-67
2023/06/01 02:13:04;;;;;;;4.53;3.77;;;;;;;14.99;64.90;100756.02;5098311;56;1138645;-67
2023/06/01 02:18:11;;;;;;;7.03;3.77;;;;;;;15.06;64.81;100756.30;5146386;56;1138751;-67
2023/06/01 02:23:16;;;;;;;8.40;3.80;;;;;;;15.03;64.73;100756.09;5126494;56;1138844;-69
2023/06/01 02:28:22;;;;;;;7.53;3.85;;;;;;;15.14;65.13;100753.27;5054562;56;1138681;-67
2023/06/01 02:33:28;;;;;;;16.60;5.25;;;;;;;15.01;64.16;100748.73;5062235;56;1138880;-68
2023/06/01 02:38:33;;;;;;;9.43;3.80;;;;;;;14.74;64.41;100753.94;5081879;56;1141063;-67
2023/06/01 02:43:39;;;;;;;11.68;5.33;;;;;;;14.60;65.20;100759.67;5108693;56;1138857;-69
2023/06/01 02:48:46;;;;;;;6.93;3.70;;;;;;;14.50;65.74;100758.83;5121862;56;1140876;-68
2023/06/01 02:53:51;;;;;;;5.28;3.35;;;;;;;14.43;66.25;100752.72;4931728;58;1138898;-69
2023/06/01 02:58:57;;;;;;;6.57;3.30;;;;;;;14.36;66.76;100746.73;5063935;56;1139135;-65
2023/06/01 03:04:05;;;;;;;7.43;3.60;;;;;;;14.22;67.55;100750.61;5054390;56;1138905;-69
2023/06/01 03:09:12;;;;;;;5.13;3.03;;;;;;;14.06;68.29;100749.80;5057068;56;1138925;-69
2023/06/01 03:14:26;;;;;;;7.65;2.98;;;;;;;13.94;69.08;100752.70;4995679;56;1138940;-67
2023/06/01 03:19:32;;;;;;;11.56;4.18;;;;;;;13.99;70.03;100743.35;5088666;56;1138858;-69
2023/06/01 03:24:41;;;;;;;15.10;6.27;;;;;;;14.13;70.41;100736.81;5085955;56;1141132;-67
2023/06/01 03:29:47;;;;;;;11.53;4.17;;;;;;;14.19;70.02;100736.27;5049739;56;1141455;-68
2023/06/01 03:34:53;;;;;;;10.67;4.10;;;;;;;14.22;70.14;100738.63;4944995;57;1141069;-66
2023/06/01 03:39:58;;;;;;;5.87;4.07;;;;;;;14.23;70.33;100736.33;5072893;56;1141129;-68
2023/06/01 03:45:07;;;;;;;6.07;4.30;;;;;;;14.24;70.48;100739.83;5060984;56;1138751;-69
2023/06/01 03:50:13;;;;;;;10.37;3.93;;;;;;;14.17;70.90;100726.25;5064850;56;1139208;-69
2023/06/01 03:55:20;;;;;;;9.63;3.33;;;;;;;14.10;71.22;100723.77;5080332;56;1141236;-70
2023/06/01 04:00:30;;;;;;;8.35;3.58;;;;;;;14.18;71.76;100727.94;5026398;56;1138972;-69
2023/06/01 04:05:36;;;;;;;14.93;4.30;;;;;;;14.25;71.85;100726.88;5057881;56;1138931;-69
2023/06/01 04:10:42;;;;;;;17.82;4.90;;;;;;;14.21;72.39;100718.81;5069926;56;1140989;-67
2023/06/01 04:15:48;;;;;;;7.60;3.53;;;;;;;14.20;72.89;100710.52;5116604;56;1140794;-69
2023/06/01 04:20:55;;;;;;;23.97;3.90;;;;;;;14.31;73.60;100707.72;5049393;56;1138872;-69
2023/06/01 04:26:02;;;;;;;9.75;3.00;;;;;;;14.32;73.79;100707.59;5088622;56;1140902;-68
2023/06/01 04:31:08;;;;;;;9.90;3.07;;;;;;;14.35;74.53;100706.47;5157679;56;1139055;-68
2023/06/01 04:36:21;;;;;;;4.67;3.03;;;;;;;14.38;74.93;100699.03;5136849;56;1138971;-68
2023/06/01 04:41:23;;;;;;;7.53;2.73;;;;;;;14.46;75.63;100691.73;5107119;56;1138860;-70
2023/06/01 04:46:29;;;;;;;4.72;2.67;;;;;;;14.55;75.22;100688.22;5130737;56;1138739;-66
2023/06/01 04:51:36;;;;;;;6.15;2.83;;;;;;;14.61;75.49;100686.33;5097408;56;1138883;-68
2023/06/01 04:56:42;;;;;;;5.85;2.80;;;;;;;14.69;75.75;100686.45;5005683;57;1138784;-69
2023/06/01 05:01:47;;;;;;;8.83;2.83;;;;;;;14.78;77.00;100693.61;4976429;57;1139175;-68
2023/06/01 05:06:53;;;;;;;7.77;3.40;;;;;;;14.82;76.86;100692.00;4959527;58;1139005;-69
2023/06/01 05:11:59;;;;;;;6.80;3.27;;;;;;;14.92;77.69;100686.16;5071789;56;1138870;-67
2023/06/01 05:17:05;;;;;;;6.23;2.87;;;;;;;15.08;78.74;100695.73;5062129;56;1138780;-67
2023/06/01 05:22:11;;;;;;;5.77;2.70;;;;;;;15.19;78.65;100688.06;5042846;56;1138855;-70
2023/06/01 05:27:18;;;;;;;13.23;3.97;;;;;;;15.32;79.30;100682.75;5042107;56;1138800;-67
2023/06/01 05:32:24;;;;;;;22.70;4.40;;;;;;;15.45;80.20;100675.27;5062175;56;1141213;-65
2023/06/01 05:37:31;;;;;;;9.30;3.33;;;;;;;15.58;81.85;100676.33;5033116;56;1140965;-67
2023/06/01 05:42:37;;;;;;;8.50;3.90;;;;;;;15.75;82.19;100670.67;5042336;56;1138833;-67
2023/06/01 05:47:42;;;;;;;9.40;3.63;;;;;;;15.82;82.55;100675.77;5057619;56;1138795;-65
2023/06/01 05:52:48;;;;;;;8.13;3.00;;;;;;;15.85;82.99;100678.14;5088477;56;1139354;-69
2023/06/01 05:57:54;;;;;;;5.60;3.37;;;;;;;15.97;84.41;100669.44;5102291;56;1138736;-67
2023/06/01 06:03:00;;;;;;;10.70;3.70;;;;;;;16.09;83.72;100671.73;5103646;56;1138918;-69
2023/06/01 06:08:06;;;;;;;14.50;4.73;;;;;;;16.27;83.59;100666.91;5142885;56;1141076;-67
2023/06/01 06:13:14;;;;;;;8.00;3.83;;;;;;;16.43;83.01;100665.23;5088257;56;1141278;-69
2023/06/01 06:18:20;;;;;;;17.62;4.03;;;;;;;16.53;83.01;100656.63;5138976;56;1138963;-68
2023/06/01 06:23:27;;;;;;;15.60;4.45;;;;;;;16.64;82.38;100645.42;5116006;56;1140789;-67
2023/06/01 06:28:33;;;;;;;12.00;3.50;;;;;;;16.82;82.66;100641.70;5054909;56;1140946;-65
2023/06/01 06:33:38;;;;;;;13.20;4.05;;;;;;;16.97;81.84;100643.80;5036866;56;1141009;-68
2023/06/01 06:38:45;;;;;;;10.20;4.43;;;;;;;17.15;81.68;100632.06;5056441;56;1141152;-67
2023/06/01 06:43:51;;;;;;;13.83;3.73;;;;;;;17.28;81.08;100630.78;5061426;56;1140965;-66
2023/06/01 06:48:56;;;;;;;13.37;4.13;;;;;;;17.36;80.87;100621.48;5041379;56;1140897;-68
2023/06/01 06:54:05;;;;;;;13.67;3.77;;;;;;;17.47;80.34;100622.53;5091713;56;1140735;-67
2023/06/01 06:59:09;;;;;;;13.90;3.50;;;;;;;17.66;81.55;100615.62;5129236;56;1140819;-65
2023/06/01 07:04:15;;;;;;;8.60;3.67;;;;;;;17.77;79.34;100614.47;5105787;56;1140865;-65
2023/06/01 07:09:21;;;;;;;9.78;3.27;;;;;;;17.96;79.86;100615.53;5095807;56;1138765;-68
2023/06/01 07:14:27;;;;;;;8.58;3.52;;;;;;;18.14;76.61;100615.39;5072330;56;1138788;-68
2023/06/01 07:19:35;;;;;;;10.28;3.12;;;;;;;18.39;73.99;100613.06;5052481;57;1138983;-66
2023/06/01 07:24:41;;;;;;;7.10;3.13;;;;;;;18.56;75.23;100619.25;5067766;56;1141061;-67
2023/06/01 07:29:46;;;;;;;6.40;3.10;;;;;;;18.68;72.64;100613.08;5137231;56;1138967;-66
2023/06/01 07:34:52;;;;;;;10.73;3.07;;;;;;;18.75;73.04;100619.45;5157243;56;1138901;-68
2023/06/01 07:39:58;;;;;;;6.27;3.07;;;;;;;18.92;73.92;100602.34;5132869;56;1140965;-65
2023/06/01 07:45:05;;;;;;;8.28;3.95;;;;;;;19.17;73.27;100593.20;5137446;56;1138869;-68
2023/06/01 07:50:11;;;;;;;16.56;3.56;;;;;;;19.54;73.57;100595.78;5155579;56;1138922;-70
2023/06/01 07:55:17;;;;;;;10.88;3.60;;;;;;;19.70;69.13;100588.16;5052550;57;1140774;-66
2023/06/01 08:00:23;;;;;;;8.53;3.42;;;;;;;19.70;69.30;100587.66;5080104;56;1141252;-64
2023/06/01 08:05:28;;;;;;;13.20;3.17;;;;;;;19.80;69.97;100592.78;5092071;56;1138702;-68
2023/06/01 08:10:34;;;;;;;8.87;2.80;;;;;;;19.90;70.39;100589.36;5041866;56;1140995;-69
2023/06/01 08:15:42;;;;;;;8.20;2.95;;;;;;;20.00;71.22;100584.11;5073680;56;1139016;-67
2023/06/01 08:20:48;;;;;;;7.35;3.15;;;;;;;20.16;69.70;100579.13;4934770;57;1138961;-68
2023/06/01 08:25:53;;;;;;;9.68;3.17;;;;;;;20.24;70.03;100576.87;4905444;57;1138788;-68
2023/06/01 08:30:59;;;;;;;10.20;4.25;;;;;;;20.34;69.37;100574.25;5081235;56;1138659;-69
2023/06/01 08:36:05;;;;;;;12.43;3.67;;;;;;;20.43;70.19;100572.38;5077319;56;1140888;-66
2023/06/01 08:41:27;;;;;;;7.95;3.08;;;;;;;20.59;71.67;100579.46;5077567;56;1140795;-70
2023/06/01 08:46:37;;;;;;;16.83;4.20;;;;;;;20.69;70.55;100570.11;5095923;56;1138858;-69
2023/06/01 08:51:45;;;;;;;12.53;3.58;;;;;;;21.06;72.04;100569.73;5045767;56;1140895;-68
2023/06/01 08:56:52;;;;;;;9.98;3.65;;;;;;;21.21;68.54;100569.75;5069159;56;1141049;-70
2023/06/01 09:01:59;;;;;;;12.23;4.00;;;;;;;21.14;68.46;100570.13;5055647;56;1138910;-67
2023/06/01 09:07:05;;;;;;;14.05;4.03;;;;;;;21.20;70.06;100566.23;5002688;57;1140857;-67
2023/06/01 09:12:29;;;;;;;15.88;4.25;;;;;;;21.17;68.83;100562.52;5062241;56;1141030;-70
2023/06/01 09:17:35;;;;;;;14.10;3.77;;;;;;;21.24;69.46;100563.47;4891282;58;1140919;-67
2023/06/01 09:22:44;;;;;;;8.45;3.80;;;;;;;21.29;67.67;100559.71;5109703;56;1140894;-68
2023/06/01 09:27:52;;;;;;;9.28;4.20;;;;;;;21.40;69.08;100554.34;5147928;56;1138880;-69
2023/06/01 09:33:20;;;;;;;11.22;3.72;;;;;;;21.71;66.93;100558.97;5126350;56;1138762;-70
2023/06/01 09:38:27;;;;;;;11.83;3.83;;;;;;;21.59;67.94;100557.80;5126184;56;1141195;-66
2023/06/01 09:43:37;;;;;;;8.98;3.77;;;;;;;21.48;68.90;100553.42;5136720;56;1140724;-70
2023/06/01 09:48:44;;;;;;;11.63;3.67;;;;;;;21.36;68.72;100561.16;5101708;56;1138956;-70
2023/06/01 09:53:50;;;;;;;7.40;4.15;;;;;;;21.30;69.96;100568.11;5067220;56;1140786;-65
2023/06/01 09:59:02;;;;;;;14.20;4.25;;;;;;;21.43;70.29;100568.78;5064521;56;1138751;-68
2023/06/01 10:04:08;;;;;;;10.70;4.22;;;;;;;21.38;67.18;100577.95;5046927;56;1140872;-65
2023/06/01 10:09:18;;;;;;;7.87;3.80;;;;;;;21.47;67.81;100563.86;5128424;56;1140889;-69
2023/06/01 10:14:25;;;;;;;8.00;4.03;;;;;;;21.43;66.83;100578.70;5136198;56;1138740;-67
2023/06/01 10:19:31;;;;;;;12.15;3.95;;;;;;;21.45;68.32;100569.94;5097253;56;1138687;-66
2023/06/01 10:24:41;;;;;;;11.13;4.00;;;;;;;21.37;64.80;100573.08;5141819;56;1140811;-68
2023/06/01 10:29:47;;;;;;;11.38;4.30;;;;;;;21.50;66.06;100560.80;5140790;56;1141113;-68
2023/06/01 10:34:53;;;;;;;11.48;4.35;;;;;;;21.46;63.85;100568.41;5080167;56;1140982;-68
2023/06/01 10:40:22;;;;;;;8.03;3.40;;;;;;;21.43;65.87;100562.56;5056533;56;1140973;-70
2023/06/01 10:45:39;;;;;;;12.63;4.58;;;;;;;21.69;63.14;100565.59;5052601;56;1138821;-66
2023/06/01 10:50:46;;;;;;;14.07;4.40;;;;;;;21.58;62.87;100556.64;5068716;56;1140954;-66
2023/06/01 10:56:24;;;;;;;12.37;3.77;;;;;;;21.54;63.24;100554.03;5125211;56;1140861;-69
2023/06/01 11:01:31;;;;;;;8.60;3.05;;;;;;;21.57;63.81;100557.15;5138061;56;1140811;-68
2023/06/01 11:06:40;;;;;;;8.53;4.53;;;;;;;21.80;61.33;100554.83;5132168;56;1138809;-68
2023/06/01 11:11:57;;;;;;;10.77;3.50;;;;;;;21.99;61.20;100557.77;5124269;56;1138747;-67
2023/06/01 11:17:28;;;;;;;17.02;4.10;;;;;;;22.30;58.61;100553.90;5075000;56;1140858;-64
2023/06/01 11:22:40;;;;;;;12.13;3.97;;;;;;;22.00;57.44;100550.48;5040032;57;1141174;-68
2023/06/01 11:27:46;;;;;;;8.53;3.27;;;;;;;21.88;57.78;100546.09;5109656;56;1140841;-70
2023/06/01 11:32:53;;;;;;;6.30;3.10;;;;;;;21.85;57.07;100537.56;5146855;56;1138908;-70
2023/06/01 11:37:59;;;;;;;7.62;4.05;;;;;;;21.97;58.13;100544.12;4959530;57;1138878;-68
2023/06/01 11:43:05;;;;;;;15.23;3.98;;;;;;;22.08;57.70;100525.62;5094280;56;1138920;-66
2023/06/01 11:48:13;;;;;;;14.95;3.83;;;;;;;22.19;56.78;100534.19;5062037;56;1140919;-66
2023/06/01 11:53:19;;;;;;;11.90;4.40;;;;;;;22.17;56.80;100530.86;5041898;56;1140870;-70
2023/06/01 11:58:31;;;;;;;11.50;4.00;;;;;;;22.20;57.45;100519.19;5056866;56;1141138;-65
2023/06/01 12:03:47;;;;;;;14.77;4.50;;;;;;;22.57;58.74;100522.59;5126645;56;1140951;-70
2023/06/01 12:08:55;;;;;;;18.37;3.50;;;;;;;22.79;57.78;100510.20;5152338;56;1141204;-72
2023/06/01 12:14:02;;;;;;;16.32;4.67;;;;;;;22.91;54.10;100513.20;5098072;56;1141029;-72
2023/06/01 12:19:14;;;;;;;10.93;3.05;;;;;;;22.93;55.77;100508.92;5137325;56;1140937;-69
2023/06/01 12:24:29;;;;;;;8.93;3.30;;;;;;;22.84;53.51;100506.92;5097519;56;1141043;-65
2023/06/01 12:29:39;;;;;;;8.27;4.20;;;;;;;22.66;53.91;100510.09;5093631;56;1139194;-67
2023/06/01 12:34:48;;;;;;;18.10;3.90;;;;;;;22.87;55.24;100505.70;5137962;56;1139149;-70
2023/06/01 12:39:56;;;;;;;7.15;3.52;;;;;;;23.02;54.43;100500.48;5157928;56;1141122;-70
2023/06/01 12:45:01;;;;;;;23.30;4.97;;;;;;;23.02;54.55;100497.78;5137881;56;1138728;-71
2023/06/01 12:50:10;;;;;;;10.18;4.15;;;;;;;23.02;53.81;100493.73;5121222;56;1140891;-68
2023/06/01 12:55:17;;;;;;;42.98;4.80;;;;;;;23.06;52.18;100503.11;5124718;56;1140920;-69
2023/06/01 13:00:23;;;;;;;10.90;3.77;;;;;;;23.02;55.56;100492.91;5123885;56;1141084;-70
2023/06/01 13:05:29;;;;;;;13.93;3.87;;;;;;;23.01;52.37;100496.63;5135848;56;1140962;-67
2023/06/01 13:10:35;;;;;;;8.77;3.93;;;;;;;23.05;53.17;100491.16;5066648;56;1140961;-68
2023/06/01 13:15:45;;;;;;;13.22;4.28;;;;;;;23.17;51.98;100492.25;5147966;56;1139385;-71
2023/06/01 13:20:50;;;;;;;11.08;3.65;;;;;;;23.12;52.13;100494.19;4996124;56;1141056;-66
2023/06/01 13:25:56;;;;;;;11.38;3.60;;;;;;;23.35;50.03;100480.90;5022485;56;1140785;-68
2023/06/01 13:31:01;;;;;;;6.65;3.40;;;;;;;23.15;48.88;100472.72;4906698;58;1141038;-70
2023/06/01 13:36:07;;;;;;;11.50;4.25;;;;;;;23.14;48.39;100487.25;5037911;57;1139072;-68
2023/06/01 13:41:13;;;;;;;6.53;2.98;;;;;;;23.05;49.41;100482.55;4949730;57;1141064;-64
2023/06/01 13:46:18;;;;;;;9.20;4.58;;;;;;;22.94;48.51;100483.10;4968767;58;1138877;-67
2023/06/01 13:51:24;;;;;;;8.20;3.92;;;;;;;23.06;48.65;100486.09;4949513;57;1138821;-72
2023/06/01 13:56:29;;;;;;;10.30;3.77;;;;;;;23.00;49.38;100486.36;4950262;57;1138859;-71
2023/06/01 14:01:35;;;;;;;7.45;4.10;;;;;;;23.11;48.07;100475.50;5051603;56;1140884;-67
2023/06/01 14:06:41;;;;;;;7.83;3.60;;;;;;;22.96;48.66;100482.39;4969406;57;1138682;-72
2023/06/01 14:11:46;;;;;;;8.78;4.15;;;;;;;22.96;48.66;100482.39;4965078;57;1138984;-71
2023/06/01 14:16:52;;;;;;;12.80;3.92;;;;;;;22.97;47.28;100479.17;5027717;57;1139138;-67
2023/06/01 14:21:57;;;;;;;13.30;4.22;;;;;;;22.96;49.02;100460.81;5079252;56;1140878;-71
2023/06/01 14:27:04;;;;;;;7.55;4.33;;;;;;;23.16;48.55;100471.69;5081442;56;1141261;-70
2023/06/01 14:32:10;;;;;;;9.13;3.60;;;;;;;23.05;47.12;100467.72;5109463;56;1138724;-70
2023/06/01 14:37:15;;;;;;;7.28;3.10;;;;;;;23.18;46.98;100465.58;5074800;57;1138748;-70
2023/06/01 14:42:22;;;;;;;7.85;2.92;;;;;;;23.27;47.25;100460.82;5051939;57;1138800;-67
2023/06/01 14:47:27;;;;;;;9.10;3.08;;;;;;;23.10;45.57;100463.05;5021461;57;1139204;-68
2023/06/01 14:52:33;;;;;;;6.65;3.25;;;;;;;22.87;46.29;100466.08;5034852;57;1138922;-68
2023/06/01 14:57:39;;;;;;;8.38;3.50;;;;;;;22.84;45.41;100460.24;5004405;57;1138936;-73
2023/06/01 15:02:45;;;;;;;11.60;4.20;;;;;;;22.76;45.59;100464.75;4978156;56;1139014;-70
2023/06/01 15:07:51;;;;;;;5.92;3.47;;;;;;;22.87;46.39;100471.47;4840357;59;1140988;-67
2023/06/01 15:12:56;;;;;;;8.08;3.62;;;;;;;22.89;47.08;100472.62;5012257;56;1138880;-67
2023/06/01 15:18:02;;;;;;;19.02;4.92;;;;;;;22.88;46.87;100470.44;5021373;56;1138913;-67
2023/06/01 15:23:07;;;;;;;6.10;3.25;;;;;;;22.95;47.08;100463.19;5054565;57;1140914;-67
2023/06/01 15:28:13;;;;;;;15.10;6.67;;;;;;;22.98;46.88;100458.75;5011142;57;1138941;-67
2023/06/01 15:33:19;;;;;;;14.47;3.50;;;;;;;22.92;47.67;100466.80;4939602;57;1142713;-67
2023/06/01 15:38:25;;;;;;;6.67;3.60;;;;;;;22.97;48.17;100458.43;4959635;57;1141262;-71
2023/06/01 15:43:31;;;;;;;6.67;3.60;;;;;;;22.85;47.77;100453.81;5008542;56;1138786;-69
2023/06/01 15:48:39;;;;;;;7.03;3.23;;;;;;;22.79;48.52;100457.62;5014851;57;1138889;-64
2023/06/01 15:53:43;;;;;;;7.67;3.00;;;;;;;22.46;48.74;100443.08;5046124;56;1138665;-66
2023/06/01 15:58:49;;;;;;;10.13;3.08;;;;;;;22.29;48.00;100447.98;5127831;56;1138731;-65
2023/06/01 16:03:55;;;;;;;5.80;3.35;;;;;;;22.27;49.10;100449.20;5036166;56;1141080;-68
2023/06/01 16:09:01;;;;;;;10.28;3.20;;;;;;;22.20;50.26;100453.69;5057678;56;1138657;-68
2023/06/01 16:14:06;;;;;;;16.37;3.22;;;;;;;22.15;50.36;100444.88;5035547;56;1140764;-68
2023/06/01 16:19:12;;;;;;;11.45;3.87;;;;;;;22.09;50.69;100446.48;4974842;56;1141162;-66
2023/06/01 16:24:17;;;;;;;9.30;3.10;;;;;;;22.03;50.53;100439.68;5004494;56;1141062;-70
2023/06/01 16:29:24;;;;;;;6.53;3.40;;;;;;;21.79;50.61;100442.25;4998024;56;1138945;-67
2023/06/01 16:34:29;;;;;;;9.65;3.83;;;;;;;21.68;50.85;100441.44;5020368;56;1138659;-69
2023/06/01 16:39:35;;;;;;;6.55;2.92;;;;;;;21.62;50.61;100429.58;5021933;56;1138931;-68
2023/06/01 16:44:40;;;;;;;8.47;3.80;;;;;;;21.72;51.07;100429.23;4976100;57;1138954;-67
2023/06/01 16:49:46;;;;;;;8.37;3.47;;;;;;;21.65;50.81;100427.02;5037268;57;1138897;-65
2023/06/01 16:54:54;;;;;;;10.95;4.05;;;;;;;21.75;50.46;100431.55;4990853;56;1138863;-64
2023/06/01 16:59:59;;;;;;;7.67;3.08;;;;;;;21.47;50.40;100430.66;5108862;56;1140941;-68
2023/06/01 17:05:05;;;;;;;11.22;3.35;;;;;;;21.21;50.93;100434.75;5081849;56;1138868;-68
2023/06/01 17:10:11;;;;;;;11.22;3.52;;;;;;;21.22;51.78;100423.48;5014416;56;1141183;-68
2023/06/01 17:15:17;;;;;;;9.53;2.90;;;;;;;21.09;51.16;100425.45;5029952;56;1140904;-66
2023/06/01 17:20:22;;;;;;;7.03;2.95;;;;;;;21.04;51.62;100426.03;5122378;56;1138872;-68
2023/06/01 17:25:28;;;;;;;13.88;3.45;;;;;;;20.84;51.04;100421.44;5063606;56;1138839;-65
2023/06/01 17:30:34;;;;;;;6.53;2.65;;;;;;;20.69;51.61;100429.00;4852267;57;1140962;-68
2023/06/01 17:35:40;;;;;;;12.35;2.90;;;;;;;20.62;51.92;100428.61;4938397;58;1138956;-68
2023/06/01 17:40:46;;;;;;;7.30;2.30;;;;;;;20.60;51.95;100424.77;4873481;58;1140823;-67
2023/06/01 17:45:51;;;;;;;8.63;3.20;;;;;;;20.36;51.90;100435.26;4859815;59;1138744;-69
2023/06/01 17:50:57;;;;;;;6.40;2.50;;;;;;;20.01;52.42;100444.80;4863211;58;1138715;-67
2023/06/01 17:56:02;;;;;;;13.32;3.30;;;;;;;19.81;52.96;100436.95;4887045;58;1138662;-69
2023/06/01 18:01:08;;;;;;;11.38;2.95;;;;;;;19.75;53.36;100443.53;4978720;57;1140955;-66
2023/06/01 18:06:17;;;;;;;10.48;3.05;;;;;;;19.73;54.12;100440.19;4902713;59;1140881;-68
2023/06/01 18:11:22;;;;;;;6.42;3.00;;;;;;;19.55;54.32;100437.83;4957450;57;1140796;-64
2023/06/01 18:16:28;;;;;;;11.93;3.85;;;;;;;19.49;54.95;100441.19;4938396;57;1138773;-68
2023/06/01 18:21:33;;;;;;;8.95;4.22;;;;;;;19.40;55.25;100438.25;4938136;57;1140931;-68
2023/06/01 18:26:40;;;;;;;7.50;3.65;;;;;;;19.37;55.17;100439.94;4892809;57;1138931;-66
2023/06/01 18:31:46;;;;;;;11.10;3.92;;;;;;;19.38;55.25;100431.72;4878924;58;1138887;-67
2023/06/01 18:36:51;;;;;;;8.33;3.10;;;;;;;19.21;56.40;100439.53;4937708;58;1141192;-67
2023/06/01 18:41:57;;;;;;;41.83;10.58;;;;;;;19.01;57.92;100439.12;4992401;57;1138942;-71
2023/06/01 18:47:03;;;;;;;59.70;30.30;;;;;;;18.92;58.87;100444.21;4953450;58;1142796;-67
2023/06/01 18:52:09;;;;;;;20.65;8.68;;;;;;;18.89;57.71;100448.07;4917842;58;1143040;-66
2023/06/01 18:57:15;;;;;;;20.00;9.18;;;;;;;18.79;57.81;100447.42;4976863;57;1140849;-72
2023/06/01 19:02:26;;;;;;;18.32;8.83;;;;;;;18.65;58.24;100460.20;4937049;59;1141038;-69
2023/06/01 19:07:37;;;;;;;20.23;8.08;;;;;;;18.54;58.70;100460.55;4998756;57;1140834;-69
2023/06/01 19:12:43;;;;;;;18.02;5.90;;;;;;;18.42;59.00;100461.92;5036571;57;1140821;-71
2023/06/01 19:17:50;;;;;;;11.45;5.45;;;;;;;18.40;59.41;100473.30;5016413;57;1141054;-65
2023/06/01 19:22:56;;;;;;;10.58;6.20;;;;;;;18.20;59.65;100466.97;5027080;57;1140869;-71
2023/06/01 19:28:01;;;;;;;10.50;4.70;;;;;;;18.20;59.65;100466.97;5070858;57;1140712;-71
2023/06/01 19:33:07;;;;;;;7.22;3.80;;;;;;;18.05;60.11;100470.00;5051253;57;1140832;-68
2023/06/01 19:38:16;;;;;;;7.03;2.87;;;;;;;18.26;60.61;100481.03;5051781;57;1138744;-67
2023/06/01 19:43:26;;;;;;;8.65;2.72;;;;;;;18.38;60.21;100483.34;5058025;57;1138958;-69
2023/06/01 19:48:32;;;;;;;10.35;4.05;;;;;;;18.41;59.74;100488.37;4972054;57;1138669;-70
2023/06/01 19:53:38;;;;;;;8.33;3.90;;;;;;;18.45;60.00;100485.69;5036259;57;1140988;-68
2023/06/01 19:58:43;;;;;;;8.25;3.27;;;;;;;18.30;59.59;100488.23;5123853;56;1139087;-69
2023/06/01 20:03:49;;;;;;;7.28;2.75;;;;;;;18.07;59.86;100489.41;5058913;56;1138805;-67
2023/06/01 20:09:16;;;;;;;14.33;3.12;;;;;;;17.83;60.43;100496.11;5053053;57;1138999;-69
2023/06/01 20:14:30;;;;;;;9.37;3.43;;;;;;;17.63;61.33;100500.05;5087924;56;1141321;-68
2023/06/01 20:19:37;;;;;;;6.90;3.35;;;;;;;17.49;61.75;100501.03;5090609;56;1148377;-68
2023/06/01 20:24:45;;;;;;;8.73;3.62;;;;;;;17.49;62.24;100502.88;5068260;56;1139169;-68
2023/06/01 20:29:50;;;;;;;11.03;3.30;;;;;;;17.36;62.08;100505.19;5053197;56;1138773;-65
2023/06/01 20:34:56;;;;;;;8.23;3.15;;;;;;;17.32;62.74;100498.48;5073287;56;1140856;-70
2023/06/01 20:40:02;;;;;;;7.53;3.67;;;;;;;17.34;62.94;100507.18;5090609;56;1138847;-70
2023/06/01 20:45:12;;;;;;;10.85;4.08;;;;;;;17.41;62.95;100508.22;5117986;56;1138862;-71
2023/06/01 20:50:20;;;;;;;10.03;3.60;;;;;;;17.34;62.75;100504.01;5108848;56;1140820;-70
2023/06/01 20:55:25;;;;;;;6.85;2.85;;;;;;;17.37;63.10;100502.35;5141236;56;1140987;-68
2023/06/01 21:00:31;;;;;;;4.10;3.22;;;;;;;17.41;63.21;100504.20;5137978;56;1138933;-66
2023/06/01 21:05:36;;;;;;;14.50;4.30;;;;;;;17.55;63.49;100511.09;5138249;56;1138767;-66
2023/06/01 21:10:42;;;;;;;13.60;4.42;;;;;;;17.50;62.87;100508.56;5158040;56;1140922;-66
2023/06/01 21:15:47;;;;;;;6.50;3.15;;;;;;;17.16;62.99;100512.63;5132850;56;1140865;-68
2023/06/01 21:20:53;;;;;;;5.47;2.85;;;;;;;16.87;64.12;100515.19;5129252;56;1138710;-69
2023/06/01 21:25:59;;;;;;;12.90;3.10;;;;;;;16.65;65.41;100518.39;5152888;56;1139449;-70
2023/06/01 21:31:06;;;;;;;8.80;2.90;;;;;;;16.68;66.07;100523.92;5077717;56;1140885;-69
2023/06/01 21:36:12;;;;;;;9.33;3.40;;;;;;;16.85;66.81;100529.20;5052412;57;1139022;-71
2023/06/01 21:41:20;;;;;;;14.87;3.20;;;;;;;16.84;66.08;100531.53;5072977;57;1138769;-71
2023/06/01 21:46:26;;;;;;;14.07;3.30;;;;;;;16.86;66.07;100531.37;5054412;56;1140806;-66
2023/06/01 21:51:31;;;;;;;8.10;3.50;;;;;;;16.79;65.80;100537.86;5052895;57;1140794;-69
2023/06/01 21:56:37;;;;;;;11.70;3.90;;;;;;;16.62;65.77;100541.89;5072514;57;1139254;-69
2023/06/01 22:01:43;;;;;;;8.18;3.45;;;;;;;16.54;66.20;100543.50;5051532;57;1140714;-68
2023/06/01 22:06:49;;;;;;;9.68;3.62;;;;;;;16.51;66.67;100538.47;5052328;57;1138919;-67
2023/06/01 22:11:54;;;;;;;7.75;3.83;;;;;;;16.56;67.38;100538.01;5072987;56;1138716;-66
2023/06/01 22:17:00;;;;;;;12.17;3.70;;;;;;;16.46;67.07;100540.79;5053001;57;1138634;-68
2023/06/01 22:22:06;;;;;;;8.60;3.40;;;;;;;16.38;67.56;100545.22;5052705;56;1140900;-66
2023/06/01 22:27:12;;;;;;;10.38;3.90;;;;;;;16.33;67.84;100552.88;5110851;56;1138876;-67
2023/06/01 22:32:18;;;;;;;8.53;3.87;;;;;;;16.21;68.32;100557.59;5066174;56;1140958;-71
2023/06/01 22:37:24;;;;;;;11.07;4.40;;;;;;;16.22;68.56;100558.44;5042007;57;1138731;-66
2023/06/01 22:42:29;;;;;;;10.40;3.87;;;;;;;16.25;68.70;100554.97;5101038;56;1140750;-65
2023/06/01 22:47:35;;;;;;;11.37;4.60;;;;;;;16.18;68.39;100553.43;5061580;57;1141010;-66
2023/06/01 22:52:41;;;;;;;20.00;4.87;;;;;;;16.05;68.32;100554.78;5042129;56;1140773;-68
2023/06/01 22:57:46;;;;;;;10.67;3.50;;;;;;;15.86;68.83;100551.80;5042293;56;1141008;-68
2023/06/01 23:02:52;;;;;;;15.07;4.90;;;;;;;15.65;69.34;100549.41;5062084;56;1141366;-69
2023/06/01 23:07:58;;;;;;;9.23;4.67;;;;;;;15.48;70.07;100547.53;5041825;56;1141326;-65